Metar z połowy godziny Komunikat METAR ze strony awiacja.imgw.pl Metar G30 EPMO METAR EPMO 240430Z 16008KT 6000 BKN030 M04/M05 Q1023 =